« Back
NWS Peachtree City, Ga » Text Product » ATL Terminal Aerodrome Forecast


Printer-friendly Version
Current Version              Previous Versions:   1  2  3  4  5  6  7  8  9  

Terminal Aerodrome Forecast

436
FTUS42 KFFC 021946 AAA
TAFATL
TAF AMD
KATL 021946Z 0220/0324 34004KT P6SM FEW045 SCT100
     FM030000 30005KT P6SM SCT050 BKN200
     FM031500 34005KT P6SM SCT050 BKN200
     FM032200 33006KT P6SM BKN250=

USA.gov is the U.S. government's official web portal to all federal, state and local government web resources and services.